sensor_id;sensor_type;location;lat;lon;timestamp;P1;durP1;ratioP1;P2;durP2;ratioP2
2544;SDS011;36212;48.838;9.142;2023-01-31T00:02:21;10.23;;;5.80;;
2544;SDS011;36212;48.838;9.142;2023-01-31T00:04:53;9.10;;;5.25;;
2544;SDS011;36212;48.838;9.142;2023-01-31T00:07:25;6.70;;;6.00;;
2544;SDS011;36212;48.838;9.142;2023-01-31T00:09:58;8.52;;;6.47;;
2544;SDS011;36212;48.838;9.142;2023-01-31T00:12:30;8.38;;;5.68;;
2544;SDS011;36212;48.838;9.142;2023-01-31T00:15:02;10.40;;;6.47;;
2544;SDS011;36212;48.838;9.142;2023-01-31T00:17:35;6.88;;;5.10;;
2544;SDS011;36212;48.838;9.142;2023-01-31T00:20:07;10.30;;;6.00;;
2544;SDS011;36212;48.838;9.142;2023-01-31T00:22:41;7.10;;;6.28;;
2544;SDS011;36212;48.838;9.142;2023-01-31T00:25:13;12.13;;;6.25;;
2544;SDS011;36212;48.838;9.142;2023-01-31T00:27:45;11.55;;;6.13;;
2544;SDS011;36212;48.838;9.142;2023-01-31T00:30:17;6.22;;;5.72;;
2544;SDS011;36212;48.838;9.142;2023-01-31T00:32:49;6.20;;;5.60;;
2544;SDS011;36212;48.838;9.142;2023-01-31T00:35:21;7.15;;;6.28;;
2544;SDS011;36212;48.838;9.142;2023-01-31T00:37:54;7.43;;;5.90;;
2544;SDS011;36212;48.838;9.142;2023-01-31T00:40:26;8.30;;;6.22;;
2544;SDS011;36212;48.838;9.142;2023-01-31T00:42:58;10.25;;;6.70;;
2544;SDS011;36212;48.838;9.142;2023-01-31T00:45:30;12.43;;;6.88;;
2544;SDS011;36212;48.838;9.142;2023-01-31T00:48:02;7.53;;;5.90;;
2544;SDS011;36212;48.838;9.142;2023-01-31T00:50:34;7.00;;;5.25;;
2544;SDS011;36212;48.838;9.142;2023-01-31T00:53:07;7.72;;;6.30;;
2544;SDS011;36212;48.838;9.142;2023-01-31T00:55:39;7.22;;;6.47;;
2544;SDS011;36212;48.838;9.142;2023-01-31T00:58:12;9.98;;;6.80;;
2544;SDS011;36212;48.838;9.142;2023-01-31T01:00:44;8.15;;;5.38;;
2544;SDS011;36212;48.838;9.142;2023-01-31T01:03:17;7.70;;;5.75;;
2544;SDS011;36212;48.838;9.142;2023-01-31T01:05:49;8.13;;;5.85;;
2544;SDS011;36212;48.838;9.142;2023-01-31T01:08:21;11.35;;;5.45;;
2544;SDS011;36212;48.838;9.142;2023-01-31T01:10:53;6.80;;;5.97;;
2544;SDS011;36212;48.838;9.142;2023-01-31T01:13:26;7.47;;;5.22;;
2544;SDS011;36212;48.838;9.142;2023-01-31T01:16:02;9.90;;;5.28;;
2544;SDS011;36212;48.838;9.142;2023-01-31T01:18:50;5.43;;;4.78;;
2544;SDS011;36212;48.838;9.142;2023-01-31T01:21:27;6.60;;;4.75;;
2544;SDS011;36212;48.838;9.142;2023-01-31T01:24:02;10.02;;;5.60;;
2544;SDS011;36212;48.838;9.142;2023-01-31T01:26:37;6.35;;;5.25;;
2544;SDS011;36212;48.838;9.142;2023-01-31T01:29:09;6.75;;;5.45;;
2544;SDS011;36212;48.838;9.142;2023-01-31T01:31:42;7.50;;;5.03;;
2544;SDS011;36212;48.838;9.142;2023-01-31T01:34:15;7.40;;;4.70;;
2544;SDS011;36212;48.838;9.142;2023-01-31T01:36:47;9.80;;;5.30;;
2544;SDS011;36212;48.838;9.142;2023-01-31T01:39:20;9.40;;;5.25;;
2544;SDS011;36212;48.838;9.142;2023-01-31T01:41:52;7.80;;;5.35;;
2544;SDS011;36212;48.838;9.142;2023-01-31T01:50:26;9.07;;;5.38;;
2544;SDS011;36212;48.838;9.142;2023-01-31T01:55:55;9.45;;;5.15;;
2544;SDS011;36212;48.838;9.142;2023-01-31T01:58:38;5.97;;;5.15;;
2544;SDS011;36212;48.838;9.142;2023-01-31T02:01:28;11.57;;;5.40;;
2544;SDS011;36212;48.838;9.142;2023-01-31T02:04:24;6.07;;;5.20;;
2544;SDS011;36212;48.838;9.142;2023-01-31T02:07:05;6.35;;;5.65;;
2544;SDS011;36212;48.838;9.142;2023-01-31T02:12:35;7.88;;;5.80;;
2544;SDS011;36212;48.838;9.142;2023-01-31T02:15:08;14.82;;;5.90;;
2544;SDS011;36212;48.838;9.142;2023-01-31T02:17:40;7.07;;;5.53;;
2544;SDS011;36212;48.838;9.142;2023-01-31T02:20:17;8.43;;;5.50;;
2544;SDS011;36212;48.838;9.142;2023-01-31T02:23:30;9.27;;;6.05;;
2544;SDS011;36212;48.838;9.142;2023-01-31T02:36:07;7.10;;;6.13;;
2544;SDS011;36212;48.838;9.142;2023-01-31T02:39:20;6.93;;;6.10;;
2544;SDS011;36212;48.838;9.142;2023-01-31T02:42:22;8.10;;;5.65;;
2544;SDS011;36212;48.838;9.142;2023-01-31T02:48:45;8.63;;;6.28;;
2544;SDS011;36212;48.838;9.142;2023-01-31T02:51:53;7.72;;;5.70;;
2544;SDS011;36212;48.838;9.142;2023-01-31T02:55:11;9.77;;;6.30;;
2544;SDS011;36212;48.838;9.142;2023-01-31T02:58:28;9.80;;;6.00;;
2544;SDS011;36212;48.838;9.142;2023-01-31T03:01:08;9.95;;;5.65;;
2544;SDS011;36212;48.838;9.142;2023-01-31T03:03:50;9.15;;;6.10;;
2544;SDS011;36212;48.838;9.142;2023-01-31T03:09:43;12.23;;;6.53;;
2544;SDS011;36212;48.838;9.142;2023-01-31T03:16:26;13.23;;;6.28;;
2544;SDS011;36212;48.838;9.142;2023-01-31T03:22:40;7.15;;;5.63;;
2544;SDS011;36212;48.838;9.142;2023-01-31T03:25:38;9.30;;;6.05;;
2544;SDS011;36212;48.838;9.142;2023-01-31T03:28:14;8.20;;;5.90;;
2544;SDS011;36212;48.838;9.142;2023-01-31T03:31:03;6.90;;;6.15;;
2544;SDS011;36212;48.838;9.142;2023-01-31T03:33:59;11.52;;;5.90;;
2544;SDS011;36212;48.838;9.142;2023-01-31T03:37:25;10.82;;;6.57;;
2544;SDS011;36212;48.838;9.142;2023-01-31T03:42:57;6.32;;;5.75;;
2544;SDS011;36212;48.838;9.142;2023-01-31T03:45:43;9.25;;;5.68;;
2544;SDS011;36212;48.838;9.142;2023-01-31T03:48:29;12.35;;;6.63;;
2544;SDS011;36212;48.838;9.142;2023-01-31T03:51:08;8.93;;;6.85;;
2544;SDS011;36212;48.838;9.142;2023-01-31T03:53:51;9.00;;;6.28;;
2544;SDS011;36212;48.838;9.142;2023-01-31T03:56:40;6.45;;;5.85;;
2544;SDS011;36212;48.838;9.142;2023-01-31T03:59:35;7.00;;;5.95;;
2544;SDS011;36212;48.838;9.142;2023-01-31T04:02:12;11.55;;;6.57;;
2544;SDS011;36212;48.838;9.142;2023-01-31T04:04:49;6.85;;;5.50;;
2544;SDS011;36212;48.838;9.142;2023-01-31T04:07:39;6.93;;;6.10;;
2544;SDS011;36212;48.838;9.142;2023-01-31T04:10:12;9.90;;;6.15;;
2544;SDS011;36212;48.838;9.142;2023-01-31T04:12:49;8.50;;;5.70;;
2544;SDS011;36212;48.838;9.142;2023-01-31T04:15:21;8.80;;;6.35;;
2544;SDS011;36212;48.838;9.142;2023-01-31T04:17:55;10.20;;;5.95;;
2544;SDS011;36212;48.838;9.142;2023-01-31T04:20:27;9.77;;;5.70;;
2544;SDS011;36212;48.838;9.142;2023-01-31T04:22:59;7.57;;;5.18;;
2544;SDS011;36212;48.838;9.142;2023-01-31T04:25:32;7.68;;;5.50;;
2544;SDS011;36212;48.838;9.142;2023-01-31T04:28:04;9.02;;;6.03;;
2544;SDS011;36212;48.838;9.142;2023-01-31T04:30:37;9.20;;;5.40;;
2544;SDS011;36212;48.838;9.142;2023-01-31T04:33:09;7.05;;;5.47;;
2544;SDS011;36212;48.838;9.142;2023-01-31T04:35:40;8.48;;;6.55;;
2544;SDS011;36212;48.838;9.142;2023-01-31T04:38:13;7.75;;;6.15;;
2544;SDS011;36212;48.838;9.142;2023-01-31T04:40:58;9.95;;;6.25;;
2544;SDS011;36212;48.838;9.142;2023-01-31T04:43:30;8.60;;;5.80;;
2544;SDS011;36212;48.838;9.142;2023-01-31T04:46:03;11.38;;;7.28;;
2544;SDS011;36212;48.838;9.142;2023-01-31T04:48:35;7.00;;;5.90;;
2544;SDS011;36212;48.838;9.142;2023-01-31T04:51:10;10.32;;;6.20;;
2544;SDS011;36212;48.838;9.142;2023-01-31T04:53:43;9.63;;;6.28;;
2544;SDS011;36212;48.838;9.142;2023-01-31T04:56:15;8.60;;;6.15;;
2544;SDS011;36212;48.838;9.142;2023-01-31T04:58:47;9.45;;;5.97;;
2544;SDS011;36212;48.838;9.142;2023-01-31T05:01:19;8.02;;;6.60;;
2544;SDS011;36212;48.838;9.142;2023-01-31T05:03:51;10.20;;;7.13;;
2544;SDS011;36212;48.838;9.142;2023-01-31T05:06:24;7.75;;;6.68;;
2544;SDS011;36212;48.838;9.142;2023-01-31T05:08:56;17.00;;;5.55;;
2544;SDS011;36212;48.838;9.142;2023-01-31T05:11:32;6.35;;;5.63;;
2544;SDS011;36212;48.838;9.142;2023-01-31T05:14:04;11.95;;;6.35;;
2544;SDS011;36212;48.838;9.142;2023-01-31T05:16:37;10.57;;;6.47;;
2544;SDS011;36212;48.838;9.142;2023-01-31T05:19:09;11.07;;;6.15;;
2544;SDS011;36212;48.838;9.142;2023-01-31T05:21:45;7.38;;;5.88;;
2544;SDS011;36212;48.838;9.142;2023-01-31T05:24:29;14.07;;;6.47;;
2544;SDS011;36212;48.838;9.142;2023-01-31T05:27:03;8.80;;;6.18;;
2544;SDS011;36212;48.838;9.142;2023-01-31T05:29:35;11.65;;;7.05;;
2544;SDS011;36212;48.838;9.142;2023-01-31T05:32:08;12.27;;;6.65;;
2544;SDS011;36212;48.838;9.142;2023-01-31T05:34:40;12.38;;;6.30;;
2544;SDS011;36212;48.838;9.142;2023-01-31T05:37:12;11.77;;;6.75;;
2544;SDS011;36212;48.838;9.142;2023-01-31T05:39:44;8.93;;;5.68;;
2544;SDS011;36212;48.838;9.142;2023-01-31T05:42:16;11.27;;;5.93;;
2544;SDS011;36212;48.838;9.142;2023-01-31T05:44:48;10.60;;;6.78;;
2544;SDS011;36212;48.838;9.142;2023-01-31T05:47:20;10.75;;;6.95;;
2544;SDS011;36212;48.838;9.142;2023-01-31T05:49:55;8.98;;;6.53;;
2544;SDS011;36212;48.838;9.142;2023-01-31T05:52:27;15.32;;;7.13;;
2544;SDS011;36212;48.838;9.142;2023-01-31T05:54:59;12.02;;;6.82;;
2544;SDS011;36212;48.838;9.142;2023-01-31T05:57:31;16.08;;;6.78;;
2544;SDS011;36212;48.838;9.142;2023-01-31T06:00:03;8.10;;;6.30;;
2544;SDS011;36212;48.838;9.142;2023-01-31T06:02:37;11.80;;;7.03;;
2544;SDS011;36212;48.838;9.142;2023-01-31T06:05:10;8.00;;;7.13;;
2544;SDS011;36212;48.838;9.142;2023-01-31T06:07:43;9.02;;;6.32;;
2544;SDS011;36212;48.838;9.142;2023-01-31T06:10:15;10.93;;;7.32;;
2544;SDS011;36212;48.838;9.142;2023-01-31T06:12:48;9.95;;;7.28;;
2544;SDS011;36212;48.838;9.142;2023-01-31T06:15:20;9.82;;;7.57;;
2544;SDS011;36212;48.838;9.142;2023-01-31T06:17:53;9.73;;;6.57;;
2544;SDS011;36212;48.838;9.142;2023-01-31T06:20:25;7.28;;;6.53;;
2544;SDS011;36212;48.838;9.142;2023-01-31T06:22:58;12.13;;;6.90;;
2544;SDS011;36212;48.838;9.142;2023-01-31T06:25:31;18.08;;;8.13;;
2544;SDS011;36212;48.838;9.142;2023-01-31T06:28:03;10.93;;;7.63;;
2544;SDS011;36212;48.838;9.142;2023-01-31T06:30:36;15.50;;;6.10;;
2544;SDS011;36212;48.838;9.142;2023-01-31T06:33:08;15.27;;;7.82;;
2544;SDS011;36212;48.838;9.142;2023-01-31T06:35:42;10.52;;;6.50;;
2544;SDS011;36212;48.838;9.142;2023-01-31T06:38:14;10.80;;;6.20;;
2544;SDS011;36212;48.838;9.142;2023-01-31T06:40:46;10.02;;;5.88;;
2544;SDS011;36212;48.838;9.142;2023-01-31T06:43:18;9.05;;;5.35;;
2544;SDS011;36212;48.838;9.142;2023-01-31T06:45:51;8.32;;;5.50;;
2544;SDS011;36212;48.838;9.142;2023-01-31T06:48:23;5.97;;;5.43;;
2544;SDS011;36212;48.838;9.142;2023-01-31T06:50:55;7.93;;;4.93;;
2544;SDS011;36212;48.838;9.142;2023-01-31T06:53:27;9.05;;;5.38;;
2544;SDS011;36212;48.838;9.142;2023-01-31T06:56:00;5.95;;;4.60;;
2544;SDS011;36212;48.838;9.142;2023-01-31T06:58:32;6.60;;;6.00;;
2544;SDS011;36212;48.838;9.142;2023-01-31T07:01:05;6.90;;;5.20;;
2544;SDS011;36212;48.838;9.142;2023-01-31T07:03:41;11.13;;;5.20;;
2544;SDS011;36212;48.838;9.142;2023-01-31T07:06:13;7.57;;;5.55;;
2544;SDS011;36212;48.838;9.142;2023-01-31T07:08:47;19.67;;;6.35;;
2544;SDS011;36212;48.838;9.142;2023-01-31T07:11:19;7.18;;;5.20;;
2544;SDS011;36212;48.838;9.142;2023-01-31T07:13:51;10.15;;;6.28;;
2544;SDS011;36212;48.838;9.142;2023-01-31T07:16:24;8.30;;;6.18;;
2544;SDS011;36212;48.838;9.142;2023-01-31T07:18:56;7.45;;;5.78;;
2544;SDS011;36212;48.838;9.142;2023-01-31T07:21:28;9.27;;;5.07;;
2544;SDS011;36212;48.838;9.142;2023-01-31T07:24:02;11.25;;;6.32;;
2544;SDS011;36212;48.838;9.142;2023-01-31T07:26:35;7.65;;;5.00;;
2544;SDS011;36212;48.838;9.142;2023-01-31T07:29:07;13.10;;;6.25;;
2544;SDS011;36212;48.838;9.142;2023-01-31T07:31:41;12.90;;;5.50;;
2544;SDS011;36212;48.838;9.142;2023-01-31T07:34:13;9.23;;;5.28;;
2544;SDS011;36212;48.838;9.142;2023-01-31T07:36:45;14.40;;;5.75;;
2544;SDS011;36212;48.838;9.142;2023-01-31T07:39:18;10.40;;;6.28;;
2544;SDS011;36212;48.838;9.142;2023-01-31T07:41:50;10.35;;;5.82;;
2544;SDS011;36212;48.838;9.142;2023-01-31T07:44:22;6.68;;;5.00;;
2544;SDS011;36212;48.838;9.142;2023-01-31T07:46:55;11.35;;;5.53;;
2544;SDS011;36212;48.838;9.142;2023-01-31T07:49:27;12.07;;;6.63;;
2544;SDS011;36212;48.838;9.142;2023-01-31T07:52:00;10.63;;;5.90;;
2544;SDS011;36212;48.838;9.142;2023-01-31T07:54:32;13.75;;;6.45;;
2544;SDS011;36212;48.838;9.142;2023-01-31T07:57:04;9.20;;;5.43;;
2544;SDS011;36212;48.838;9.142;2023-01-31T07:59:36;9.30;;;5.15;;
2544;SDS011;36212;48.838;9.142;2023-01-31T08:02:13;6.53;;;5.80;;
2544;SDS011;36212;48.838;9.142;2023-01-31T08:05:24;7.05;;;5.68;;
2544;SDS011;36212;48.838;9.142;2023-01-31T08:07:56;6.18;;;5.68;;
2544;SDS011;36212;48.838;9.142;2023-01-31T08:10:41;10.40;;;5.80;;
2544;SDS011;36212;48.838;9.142;2023-01-31T08:13:13;9.95;;;5.13;;
2544;SDS011;36212;48.838;9.142;2023-01-31T08:15:45;10.77;;;5.53;;
2544;SDS011;36212;48.838;9.142;2023-01-31T08:18:20;7.22;;;5.10;;
2544;SDS011;36212;48.838;9.142;2023-01-31T08:20:53;9.45;;;5.55;;
2544;SDS011;36212;48.838;9.142;2023-01-31T08:23:27;10.15;;;5.07;;
2544;SDS011;36212;48.838;9.142;2023-01-31T08:26:02;9.32;;;6.00;;
2544;SDS011;36212;48.838;9.142;2023-01-31T08:28:46;6.85;;;5.00;;
2544;SDS011;36212;48.838;9.142;2023-01-31T08:31:21;8.32;;;5.60;;
2544;SDS011;36212;48.838;9.142;2023-01-31T08:33:56;7.95;;;5.07;;
2544;SDS011;36212;48.838;9.142;2023-01-31T08:36:29;10.73;;;5.70;;
2544;SDS011;36212;48.838;9.142;2023-01-31T08:39:03;5.53;;;4.93;;
2544;SDS011;36212;48.838;9.142;2023-01-31T08:41:36;7.03;;;5.70;;
2544;SDS011;36212;48.838;9.142;2023-01-31T08:44:10;10.02;;;5.68;;
2544;SDS011;36212;48.838;9.142;2023-01-31T08:46:43;8.45;;;5.20;;
2544;SDS011;36212;48.838;9.142;2023-01-31T08:49:16;7.53;;;5.00;;
2544;SDS011;36212;48.838;9.142;2023-01-31T08:51:48;10.48;;;5.05;;
2544;SDS011;36212;48.838;9.142;2023-01-31T08:54:20;12.05;;;4.75;;
2544;SDS011;36212;48.838;9.142;2023-01-31T08:56:53;9.40;;;5.40;;
2544;SDS011;36212;48.838;9.142;2023-01-31T08:59:25;5.70;;;4.70;;
2544;SDS011;36212;48.838;9.142;2023-01-31T09:01:58;11.07;;;4.85;;
2544;SDS011;36212;48.838;9.142;2023-01-31T09:04:31;7.05;;;4.72;;
2544;SDS011;36212;48.838;9.142;2023-01-31T09:07:03;6.95;;;4.60;;
2544;SDS011;36212;48.838;9.142;2023-01-31T09:09:35;10.40;;;4.90;;
2544;SDS011;36212;48.838;9.142;2023-01-31T09:12:07;11.75;;;5.40;;
2544;SDS011;36212;48.838;9.142;2023-01-31T09:14:39;13.55;;;5.15;;
2544;SDS011;36212;48.838;9.142;2023-01-31T09:17:11;8.88;;;4.50;;
2544;SDS011;36212;48.838;9.142;2023-01-31T09:19:44;13.25;;;4.82;;
2544;SDS011;36212;48.838;9.142;2023-01-31T09:22:17;7.70;;;5.03;;
2544;SDS011;36212;48.838;9.142;2023-01-31T09:24:49;5.93;;;4.88;;
2544;SDS011;36212;48.838;9.142;2023-01-31T09:27:21;5.05;;;4.22;;
2544;SDS011;36212;48.838;9.142;2023-01-31T09:29:54;10.20;;;4.55;;
2544;SDS011;36212;48.838;9.142;2023-01-31T09:32:26;7.00;;;4.90;;
2544;SDS011;36212;48.838;9.142;2023-01-31T09:35:01;6.03;;;4.40;;
2544;SDS011;36212;48.838;9.142;2023-01-31T09:37:34;7.20;;;4.40;;
2544;SDS011;36212;48.838;9.142;2023-01-31T09:40:13;9.32;;;4.40;;
2544;SDS011;36212;48.838;9.142;2023-01-31T09:42:53;5.38;;;4.50;;
2544;SDS011;36212;48.838;9.142;2023-01-31T09:45:34;5.43;;;3.65;;
2544;SDS011;36212;48.838;9.142;2023-01-31T09:48:13;6.68;;;3.88;;
2544;SDS011;36212;48.838;9.142;2023-01-31T09:50:57;8.40;;;4.30;;
2544;SDS011;36212;48.838;9.142;2023-01-31T09:53:32;8.38;;;3.60;;
2544;SDS011;36212;48.838;9.142;2023-01-31T09:56:20;8.00;;;4.00;;
2544;SDS011;36212;48.838;9.142;2023-01-31T09:59:12;6.35;;;3.97;;
2544;SDS011;36212;48.838;9.142;2023-01-31T10:05:30;5.60;;;4.70;;
2544;SDS011;36212;48.838;9.142;2023-01-31T10:11:52;9.25;;;4.45;;
2544;SDS011;36212;48.838;9.142;2023-01-31T10:14:57;7.00;;;3.80;;
2544;SDS011;36212;48.838;9.142;2023-01-31T10:18:00;8.43;;;4.20;;
2544;SDS011;36212;48.838;9.142;2023-01-31T10:21:12;9.30;;;4.70;;
2544;SDS011;36212;48.838;9.142;2023-01-31T10:23:56;12.73;;;4.00;;
2544;SDS011;36212;48.838;9.142;2023-01-31T10:26:44;11.60;;;4.57;;
2544;SDS011;36212;48.838;9.142;2023-01-31T10:29:30;9.55;;;5.05;;
2544;SDS011;36212;48.838;9.142;2023-01-31T10:35:30;7.95;;;4.65;;
2544;SDS011;36212;48.838;9.142;2023-01-31T10:38:14;10.73;;;5.00;;
2544;SDS011;36212;48.838;9.142;2023-01-31T10:42:33;4.70;;;4.30;;
2544;SDS011;36212;48.838;9.142;2023-01-31T10:47:34;5.63;;;4.22;;
2544;SDS011;36212;48.838;9.142;2023-01-31T10:50:22;4.97;;;3.60;;
2544;SDS011;36212;48.838;9.142;2023-01-31T10:56:36;9.43;;;4.85;;
2544;SDS011;36212;48.838;9.142;2023-01-31T11:02:24;4.97;;;4.20;;
2544;SDS011;36212;48.838;9.142;2023-01-31T11:04:59;5.55;;;3.35;;
2544;SDS011;36212;48.838;9.142;2023-01-31T11:07:31;6.40;;;4.25;;
2544;SDS011;36212;48.838;9.142;2023-01-31T11:13:03;7.85;;;4.13;;
2544;SDS011;36212;48.838;9.142;2023-01-31T11:15:46;9.40;;;4.75;;
2544;SDS011;36212;48.838;9.142;2023-01-31T11:18:35;7.78;;;4.40;;
2544;SDS011;36212;48.838;9.142;2023-01-31T11:21:26;8.25;;;4.70;;
2544;SDS011;36212;48.838;9.142;2023-01-31T11:24:04;9.10;;;5.30;;
2544;SDS011;36212;48.838;9.142;2023-01-31T11:29:49;7.80;;;4.00;;
2544;SDS011;36212;48.838;9.142;2023-01-31T11:32:28;6.20;;;4.40;;
2544;SDS011;36212;48.838;9.142;2023-01-31T11:35:20;8.57;;;3.75;;
2544;SDS011;36212;48.838;9.142;2023-01-31T11:38:17;7.88;;;3.88;;
2544;SDS011;36212;48.838;9.142;2023-01-31T11:40:53;7.72;;;3.80;;
2544;SDS011;36212;48.838;9.142;2023-01-31T11:43:25;6.15;;;3.75;;
2544;SDS011;36212;48.838;9.142;2023-01-31T11:46:01;7.13;;;3.75;;
2544;SDS011;36212;48.838;9.142;2023-01-31T11:51:23;8.77;;;3.67;;
2544;SDS011;36212;48.838;9.142;2023-01-31T11:54:02;9.20;;;3.08;;
2544;SDS011;36212;48.838;9.142;2023-01-31T11:56:35;4.50;;;3.10;;
2544;SDS011;36212;48.838;9.142;2023-01-31T11:59:08;3.85;;;3.03;;
2544;SDS011;36212;48.838;9.142;2023-01-31T12:01:53;3.33;;;2.92;;
2544;SDS011;36212;48.838;9.142;2023-01-31T12:04:30;5.18;;;3.33;;
2544;SDS011;36212;48.838;9.142;2023-01-31T12:07:25;8.32;;;3.80;;
2544;SDS011;36212;48.838;9.142;2023-01-31T12:10:32;4.00;;;3.40;;
2544;SDS011;36212;48.838;9.142;2023-01-31T12:13:16;4.45;;;2.80;;
2544;SDS011;36212;48.838;9.142;2023-01-31T12:15:52;4.60;;;3.13;;
2544;SDS011;36212;48.838;9.142;2023-01-31T12:34:23;3.30;;;3.00;;
2544;SDS011;36212;48.838;9.142;2023-01-31T12:38:14;4.28;;;3.00;;
2544;SDS011;36212;48.838;9.142;2023-01-31T12:41:11;5.22;;;3.42;;
2544;SDS011;36212;48.838;9.142;2023-01-31T12:47:26;4.47;;;3.20;;
2544;SDS011;36212;48.838;9.142;2023-01-31T12:56:46;3.63;;;3.15;;
2544;SDS011;36212;48.838;9.142;2023-01-31T12:59:58;9.98;;;3.03;;
2544;SDS011;36212;48.838;9.142;2023-01-31T13:06:14;4.07;;;3.17;;
2544;SDS011;36212;48.838;9.142;2023-01-31T13:12:06;3.38;;;2.85;;
2544;SDS011;36212;48.838;9.142;2023-01-31T13:15:01;6.50;;;3.20;;
2544;SDS011;36212;48.838;9.142;2023-01-31T13:18:05;6.28;;;2.90;;
2544;SDS011;36212;48.838;9.142;2023-01-31T13:20:45;6.93;;;3.40;;
2544;SDS011;36212;48.838;9.142;2023-01-31T13:23:30;2.85;;;2.60;;
2544;SDS011;36212;48.838;9.142;2023-01-31T13:26:17;4.57;;;2.75;;
2544;SDS011;36212;48.838;9.142;2023-01-31T13:29:03;3.20;;;2.65;;
2544;SDS011;36212;48.838;9.142;2023-01-31T13:38:12;2.50;;;2.28;;
2544;SDS011;36212;48.838;9.142;2023-01-31T13:40:51;3.17;;;2.85;;
2544;SDS011;36212;48.838;9.142;2023-01-31T13:43:26;6.88;;;3.30;;
2544;SDS011;36212;48.838;9.142;2023-01-31T13:46:00;5.53;;;2.95;;
2544;SDS011;36212;48.838;9.142;2023-01-31T13:48:46;3.20;;;2.90;;
2544;SDS011;36212;48.838;9.142;2023-01-31T13:51:38;3.72;;;3.10;;
2544;SDS011;36212;48.838;9.142;2023-01-31T13:54:32;3.25;;;2.90;;
2544;SDS011;36212;48.838;9.142;2023-01-31T13:57:22;4.15;;;3.10;;
2544;SDS011;36212;48.838;9.142;2023-01-31T14:03:12;5.05;;;3.83;;
2544;SDS011;36212;48.838;9.142;2023-01-31T14:05:53;5.05;;;3.38;;
2544;SDS011;36212;48.838;9.142;2023-01-31T14:08:38;3.90;;;3.10;;
2544;SDS011;36212;48.838;9.142;2023-01-31T14:11:31;3.53;;;3.20;;
2544;SDS011;36212;48.838;9.142;2023-01-31T14:17:55;4.45;;;3.60;;
2544;SDS011;36212;48.838;9.142;2023-01-31T14:20:28;4.65;;;3.17;;
2544;SDS011;36212;48.838;9.142;2023-01-31T14:29:23;4.30;;;3.40;;
2544;SDS011;36212;48.838;9.142;2023-01-31T14:31:56;5.85;;;3.22;;
2544;SDS011;36212;48.838;9.142;2023-01-31T14:34:29;5.15;;;2.92;;
2544;SDS011;36212;48.838;9.142;2023-01-31T14:50:03;4.65;;;3.60;;
2544;SDS011;36212;48.838;9.142;2023-01-31T15:00:04;4.03;;;3.63;;
2544;SDS011;36212;48.838;9.142;2023-01-31T15:05:21;3.25;;;2.95;;
2544;SDS011;36212;48.838;9.142;2023-01-31T15:14:18;5.20;;;3.10;;
2544;SDS011;36212;48.838;9.142;2023-01-31T15:20:11;4.78;;;2.88;;
2544;SDS011;36212;48.838;9.142;2023-01-31T15:22:47;5.07;;;3.75;;
2544;SDS011;36212;48.838;9.142;2023-01-31T15:25:28;4.32;;;4.00;;
2544;SDS011;36212;48.838;9.142;2023-01-31T15:28:14;4.75;;;3.85;;
2544;SDS011;36212;48.838;9.142;2023-01-31T15:30:53;5.85;;;3.67;;
2544;SDS011;36212;48.838;9.142;2023-01-31T15:33:34;4.88;;;3.60;;
2544;SDS011;36212;48.838;9.142;2023-01-31T15:36:26;4.32;;;3.45;;
2544;SDS011;36212;48.838;9.142;2023-01-31T15:48:09;5.82;;;3.55;;
2544;SDS011;36212;48.838;9.142;2023-01-31T15:53:28;4.25;;;3.50;;
2544;SDS011;36212;48.838;9.142;2023-01-31T15:56:04;9.07;;;4.25;;
2544;SDS011;36212;48.838;9.142;2023-01-31T15:58:51;5.28;;;4.38;;
2544;SDS011;36212;48.838;9.142;2023-01-31T16:01:26;4.60;;;4.20;;
2544;SDS011;36212;48.838;9.142;2023-01-31T16:04:01;9.13;;;3.80;;
2544;SDS011;36212;48.838;9.142;2023-01-31T16:06:35;9.07;;;3.90;;
2544;SDS011;36212;48.838;9.142;2023-01-31T16:09:20;4.75;;;4.03;;
2544;SDS011;36212;48.838;9.142;2023-01-31T16:11:59;8.48;;;4.57;;
2544;SDS011;36212;48.838;9.142;2023-01-31T16:14:33;7.05;;;4.10;;
2544;SDS011;36212;48.838;9.142;2023-01-31T16:17:07;5.38;;;4.50;;
2544;SDS011;36212;48.838;9.142;2023-01-31T16:19:41;6.07;;;4.25;;
2544;SDS011;36212;48.838;9.142;2023-01-31T16:22:28;4.80;;;4.07;;
2544;SDS011;36212;48.838;9.142;2023-01-31T16:25:02;4.10;;;3.72;;
2544;SDS011;36212;48.838;9.142;2023-01-31T16:27:47;5.47;;;4.50;;
2544;SDS011;36212;48.838;9.142;2023-01-31T16:30:19;5.38;;;3.90;;
2544;SDS011;36212;48.838;9.142;2023-01-31T16:32:53;5.25;;;3.58;;
2544;SDS011;36212;48.838;9.142;2023-01-31T16:35:27;4.07;;;3.70;;
2544;SDS011;36212;48.838;9.142;2023-01-31T16:38:05;6.18;;;4.03;;
2544;SDS011;36212;48.838;9.142;2023-01-31T16:40:54;4.40;;;3.35;;
2544;SDS011;36212;48.838;9.142;2023-01-31T16:43:40;4.45;;;3.30;;
2544;SDS011;36212;48.838;9.142;2023-01-31T16:46:34;4.07;;;3.67;;
2544;SDS011;36212;48.838;9.142;2023-01-31T16:54:59;6.53;;;5.93;;
2544;SDS011;36212;48.838;9.142;2023-01-31T16:57:43;8.45;;;4.53;;
2544;SDS011;36212;48.838;9.142;2023-01-31T17:03:10;7.07;;;3.83;;
2544;SDS011;36212;48.838;9.142;2023-01-31T17:05:52;5.05;;;4.03;;
2544;SDS011;36212;48.838;9.142;2023-01-31T17:08:24;4.28;;;3.67;;
2544;SDS011;36212;48.838;9.142;2023-01-31T17:10:56;5.57;;;3.75;;
2544;SDS011;36212;48.838;9.142;2023-01-31T17:13:29;5.95;;;4.25;;
2544;SDS011;36212;48.838;9.142;2023-01-31T17:16:01;4.32;;;4.03;;
2544;SDS011;36212;48.838;9.142;2023-01-31T17:18:45;6.65;;;3.95;;
2544;SDS011;36212;48.838;9.142;2023-01-31T17:21:18;4.18;;;3.85;;
2544;SDS011;36212;48.838;9.142;2023-01-31T17:23:55;4.30;;;3.90;;
2544;SDS011;36212;48.838;9.142;2023-01-31T17:26:29;5.78;;;3.95;;
2544;SDS011;36212;48.838;9.142;2023-01-31T17:29:01;4.53;;;3.85;;
2544;SDS011;36212;48.838;9.142;2023-01-31T17:31:33;5.25;;;4.47;;
2544;SDS011;36212;48.838;9.142;2023-01-31T17:34:11;4.25;;;3.58;;
2544;SDS011;36212;48.838;9.142;2023-01-31T17:36:45;8.90;;;4.60;;
2544;SDS011;36212;48.838;9.142;2023-01-31T17:39:18;3.78;;;3.47;;
2544;SDS011;36212;48.838;9.142;2023-01-31T17:41:50;4.32;;;3.92;;
2544;SDS011;36212;48.838;9.142;2023-01-31T17:44:26;4.20;;;3.80;;
2544;SDS011;36212;48.838;9.142;2023-01-31T17:46:58;4.07;;;3.75;;
2544;SDS011;36212;48.838;9.142;2023-01-31T17:49:30;5.45;;;4.32;;
2544;SDS011;36212;48.838;9.142;2023-01-31T17:52:05;5.63;;;3.42;;
2544;SDS011;36212;48.838;9.142;2023-01-31T17:54:38;5.65;;;3.97;;
2544;SDS011;36212;48.838;9.142;2023-01-31T17:57:10;8.48;;;3.78;;
2544;SDS011;36212;48.838;9.142;2023-01-31T17:59:42;5.07;;;4.68;;
2544;SDS011;36212;48.838;9.142;2023-01-31T18:02:18;3.88;;;3.60;;
2544;SDS011;36212;48.838;9.142;2023-01-31T18:04:50;3.58;;;3.28;;
2544;SDS011;36212;48.838;9.142;2023-01-31T18:07:22;5.82;;;4.10;;
2544;SDS011;36212;48.838;9.142;2023-01-31T18:09:55;3.60;;;3.30;;
2544;SDS011;36212;48.838;9.142;2023-01-31T18:12:27;5.57;;;4.25;;
2544;SDS011;36212;48.838;9.142;2023-01-31T18:15:00;4.53;;;4.13;;
2544;SDS011;36212;48.838;9.142;2023-01-31T18:17:34;5.13;;;4.63;;
2544;SDS011;36212;48.838;9.142;2023-01-31T18:20:06;4.25;;;3.85;;
2544;SDS011;36212;48.838;9.142;2023-01-31T18:22:39;4.38;;;4.07;;
2544;SDS011;36212;48.838;9.142;2023-01-31T18:25:12;4.65;;;3.92;;
2544;SDS011;36212;48.838;9.142;2023-01-31T18:27:45;4.97;;;4.18;;
2544;SDS011;36212;48.838;9.142;2023-01-31T18:30:17;4.30;;;3.90;;
2544;SDS011;36212;48.838;9.142;2023-01-31T18:32:50;4.60;;;4.28;;
2544;SDS011;36212;48.838;9.142;2023-01-31T18:35:24;5.65;;;4.35;;
2544;SDS011;36212;48.838;9.142;2023-01-31T18:37:56;4.43;;;4.03;;
2544;SDS011;36212;48.838;9.142;2023-01-31T18:40:29;4.03;;;3.72;;
2544;SDS011;36212;48.838;9.142;2023-01-31T18:43:02;4.93;;;4.45;;
2544;SDS011;36212;48.838;9.142;2023-01-31T18:45:35;4.13;;;3.50;;
2544;SDS011;36212;48.838;9.142;2023-01-31T18:48:08;4.82;;;4.40;;
2544;SDS011;36212;48.838;9.142;2023-01-31T18:50:40;5.60;;;4.50;;
2544;SDS011;36212;48.838;9.142;2023-01-31T18:53:13;4.18;;;3.88;;
2544;SDS011;36212;48.838;9.142;2023-01-31T18:55:46;5.32;;;4.03;;
2544;SDS011;36212;48.838;9.142;2023-01-31T18:58:31;5.68;;;5.07;;